Albany, California
Current Conditions -  °F | °C
As of 9:53 AM on Friday 28 Nov 2014 (Local Time) from KOAK Reporting Station
Haze Haze  
Wind Chill: 54°   Ceiling: Unl
Heat Index: 54°   Visibility: 3mi
Dew Point: 52°   Wind: 9mph
Humidity: 93%   Direction: 160°SSE
Pressure: 30.04"   Gusts: NA
Location:  37.89°N, 122.29°W
Report Text: KOAK 281753Z 16008KT 3SM BR FEW006 12/11 A3004 RMK AO2 SLP171 T01220111 10128 20078 53001
Loading
Personal Weather Stations






























Interactive Weather Map New forecast layout! Learn more

10-Day Weather Forecast

Advertisements
Track Severe Weather on mobile